createdAt,value
2017-09-10T00:01:12.846Z,96753.25
2017-09-10T00:03:41.162Z,96757.70
2017-09-10T00:06:09.502Z,96765.55
2017-09-10T00:08:37.814Z,96767.19
2017-09-10T00:11:06.130Z,96769.77
2017-09-10T00:13:34.478Z,96768.07
2017-09-10T00:16:02.797Z,96769.87
2017-09-10T00:18:31.121Z,96767.53
2017-09-10T00:21:00.238Z,96764.58
2017-09-10T00:23:28.558Z,96765.57
2017-09-10T00:25:56.873Z,96768.27
2017-09-10T00:28:25.974Z,96770.31
2017-09-10T00:30:55.051Z,96772.28
2017-09-10T00:33:23.367Z,96771.64
2017-09-10T00:35:51.768Z,96772.92
2017-09-10T00:38:20.095Z,96782.38
2017-09-10T00:40:48.410Z,96779.36
2017-09-10T00:43:16.808Z,96777.57
2017-09-10T00:45:45.123Z,96771.07
2017-09-10T00:48:13.434Z,96784.66
2017-09-10T00:50:42.566Z,96777.60
2017-09-10T00:53:10.874Z,96779.16
2017-09-10T00:55:39.190Z,96783.14
2017-09-10T00:58:08.302Z,96781.24
2017-09-10T01:00:36.626Z,96781.53
2017-09-10T01:03:04.947Z,96782.20
2017-09-10T01:05:34.054Z,96779.95
2017-09-10T01:08:03.138Z,96786.61
2017-09-10T01:10:31.450Z,96782.05
2017-09-10T01:12:59.786Z,96790.40
2017-09-10T01:15:28.102Z,96793.17
2017-09-10T01:17:56.420Z,96799.33
2017-09-10T01:20:24.762Z,96800.59
2017-09-10T01:22:53.083Z,96805.41
2017-09-10T01:25:21.407Z,96809.52
2017-09-10T01:27:49.751Z,96808.89
2017-09-10T01:30:18.066Z,96810.29
2017-09-10T01:32:46.385Z,96806.67
2017-09-10T01:35:14.728Z,96809.17
2017-09-10T01:37:43.045Z,96806.09
2017-09-10T01:40:11.358Z,96809.22
2017-09-10T01:42:39.697Z,96813.39
2017-09-10T01:45:08.010Z,96807.42
2017-09-10T01:47:36.325Z,96813.39
2017-09-10T01:50:04.679Z,96815.33
2017-09-10T01:52:33.812Z,96819.30
2017-09-10T01:55:02.132Z,96813.72
2017-09-10T01:57:30.478Z,96813.11
2017-09-10T01:59:58.798Z,96808.83
2017-09-10T02:02:27.115Z,96809.92
2017-09-10T02:04:56.218Z,96802.14
2017-09-10T02:07:25.416Z,96812.27
2017-09-10T02:09:53.725Z,96815.26
2017-09-10T02:12:22.066Z,96815.45
2017-09-10T02:14:51.145Z,96813.13
2017-09-10T02:17:19.462Z,96821.17
2017-09-10T02:19:47.798Z,96823.61
2017-09-10T02:22:16.140Z,96828.66
2017-09-10T02:24:44.447Z,96823.25
2017-09-10T02:27:12.795Z,96822.36
2017-09-10T02:29:41.116Z,96822.30
2017-09-10T02:32:09.430Z,96818.69
2017-09-10T02:34:38.541Z,96820.80
2017-09-10T02:37:06.862Z,96826.61
2017-09-10T02:39:35.198Z,96825.50
2017-09-10T02:42:03.550Z,96820.36
2017-09-10T02:44:32.630Z,96814.55
2017-09-10T02:47:00.950Z,96823.70
2017-09-10T02:49:29.290Z,96828.92
2017-09-10T02:51:57.605Z,96832.77
2017-09-10T02:54:25.919Z,96832.09
2017-09-10T02:56:54.264Z,96840.39
2017-09-10T02:59:23.342Z,96838.92
2017-09-10T03:01:52.418Z,96844.32
2017-09-10T03:04:20.762Z,96839.38
2017-09-10T03:06:49.074Z,96843.19
2017-09-10T03:09:17.386Z,96839.86
2017-09-10T03:11:46.491Z,96835.42
2017-09-10T03:14:15.567Z,96834.34
2017-09-10T03:16:43.878Z,96837.30
2017-09-10T03:19:12.986Z,96837.36
2017-09-10T03:21:41.307Z,96839.59
2017-09-10T03:24:09.622Z,96841.11
2017-09-10T03:26:38.722Z,96845.87
2017-09-10T03:29:07.803Z,96847.95
2017-09-10T03:31:36.878Z,96850.42
2017-09-10T03:34:05.228Z,96849.88
2017-09-10T03:36:33.550Z,96853.13
2017-09-10T03:39:02.294Z,96853.22
2017-09-10T03:41:30.629Z,96852.20
2017-09-10T03:43:58.941Z,96857.01
2017-09-10T03:46:27.254Z,96858.00
2017-09-10T03:48:55.586Z,96859.84
2017-09-10T03:51:24.663Z,96861.35
2017-09-10T03:53:53.746Z,96862.16
2017-09-10T03:56:22.088Z,96867.46
2017-09-10T03:58:50.401Z,96866.69
2017-09-10T04:01:18.711Z,96866.05
2017-09-10T04:03:47.847Z,96871.61
2017-09-10T04:06:16.155Z,96875.17
2017-09-10T04:08:44.465Z,96879.38
2017-09-10T04:11:13.569Z,96890.56
2017-09-10T04:13:42.654Z,96900.75
2017-09-10T04:16:11.734Z,96900.00
2017-09-10T04:18:40.078Z,96908.76
2017-09-10T04:21:08.386Z,96914.70
2017-09-10T04:23:36.702Z,96913.98
2017-09-10T04:26:05.806Z,96916.67
2017-09-10T04:28:34.877Z,96921.17
2017-09-10T04:31:03.190Z,96925.19
2017-09-10T04:33:32.307Z,96924.73
2017-09-10T04:36:00.619Z,96924.83
2017-09-10T04:38:28.976Z,96924.04
2017-09-10T04:40:57.318Z,96923.73
2017-09-10T04:43:25.637Z,96930.88
2017-09-10T04:45:53.941Z,96935.66
2017-09-10T04:48:22.283Z,96933.89
2017-09-10T04:50:50.594Z,96936.30
2017-09-10T04:53:18.917Z,96942.58
2017-09-10T04:55:47.250Z,96947.61
2017-09-10T04:58:15.558Z,96946.03
2017-09-10T05:00:44.639Z,96947.27
2017-09-10T05:03:13.741Z,96949.20
2017-09-10T05:05:42.054Z,96958.13
2017-09-10T05:08:10.361Z,96956.73
2017-09-10T05:10:38.700Z,96962.52
2017-09-10T05:13:07.783Z,96966.77
2017-09-10T05:15:36.091Z,96970.74
2017-09-10T05:18:05.194Z,96971.62
2017-09-10T05:20:33.511Z,96974.27
2017-09-10T05:23:01.819Z,96976.47
2017-09-10T05:25:30.162Z,96977.63
2017-09-10T05:27:58.478Z,96971.81
2017-09-10T05:30:26.795Z,96974.91
2017-09-10T05:32:55.129Z,96981.84
2017-09-10T05:35:23.441Z,96986.00
2017-09-10T05:37:52.570Z,96981.38
2017-09-10T05:40:20.912Z,96977.48
2017-09-10T05:42:49.230Z,96981.11
2017-09-10T05:45:17.542Z,96987.34
2017-09-10T05:47:45.894Z,96982.03
2017-09-10T05:50:14.198Z,96983.56
2017-09-10T05:52:42.505Z,96988.27
2017-09-10T05:55:11.606Z,96986.00
2017-09-10T05:57:39.918Z,96988.98
2017-09-10T06:00:08.235Z,96990.22
2017-09-10T06:02:36.582Z,96987.14
2017-09-10T06:05:04.895Z,96992.52
2017-09-10T06:07:33.206Z,96999.17
2017-09-10T06:10:02.310Z,96998.11
2017-09-10T06:12:30.618Z,96995.73
2017-09-10T06:14:58.930Z,96988.50
2017-09-10T06:17:27.275Z,96983.31
2017-09-10T06:19:55.592Z,96986.16
2017-09-10T06:22:23.906Z,96982.31
2017-09-10T06:24:55.254Z,96989.10
2017-09-10T06:27:23.606Z,96991.96
2017-09-10T06:29:51.922Z,97001.67
2017-09-10T06:32:20.262Z,97002.48
2017-09-10T06:34:48.579Z,96998.27
2017-09-10T06:37:16.895Z,96997.24
2017-09-10T06:39:45.253Z,97000.36
2017-09-10T06:42:13.571Z,97008.53
2017-09-10T06:44:42.028Z,97007.00
2017-09-10T06:47:10.373Z,97004.53
2017-09-10T06:49:39.451Z,97005.75
2017-09-10T06:52:07.762Z,97011.10
2017-09-10T06:54:36.098Z,97007.13
2017-09-10T06:57:04.411Z,97004.97
2017-09-10T06:59:33.491Z,97006.25
2017-09-10T07:02:01.854Z,97005.63
2017-09-10T07:04:30.170Z,97010.84
2017-09-10T07:06:59.308Z,97011.14
2017-09-10T07:09:27.658Z,97012.42
2017-09-10T07:11:55.971Z,97016.28
2017-09-10T07:14:24.291Z,97013.31
2017-09-10T07:16:52.636Z,97016.07
2017-09-10T07:19:20.950Z,97025.48
2017-09-10T07:21:50.046Z,97022.30
2017-09-10T07:24:18.390Z,97029.59
2017-09-10T07:26:46.702Z,97036.94
2017-09-10T07:29:15.020Z,97037.58
2017-09-10T07:31:43.358Z,97037.86
2017-09-10T07:34:11.682Z,97042.67
2017-09-10T07:36:39.994Z,97045.08
2017-09-10T07:39:08.330Z,97048.15
2017-09-10T07:41:37.407Z,97045.58
2017-09-10T07:44:05.730Z,97043.45
2017-09-10T07:46:34.071Z,97041.25
2017-09-10T07:49:03.151Z,97044.03
2017-09-10T07:51:31.471Z,97040.66
2017-09-10T07:53:59.806Z,97042.22
2017-09-10T07:56:28.121Z,97042.27
2017-09-10T07:58:56.442Z,97049.66
2017-09-10T08:01:24.793Z,97049.28
2017-09-10T08:03:53.110Z,97044.00
2017-09-10T08:06:21.427Z,97046.91
2017-09-10T08:08:49.767Z,97052.69
2017-09-10T08:11:18.078Z,97047.41
2017-09-10T08:13:47.158Z,97050.30
2017-09-10T08:16:15.511Z,97053.30
2017-09-10T08:18:43.841Z,97059.50
2017-09-10T08:21:12.930Z,97057.03
2017-09-10T08:26:00.587Z,97064.59
2017-09-10T08:28:29.682Z,97060.98
2017-09-10T08:30:58.006Z,97061.38
2017-09-10T08:33:26.342Z,97060.34
2017-09-10T08:35:55.418Z,97064.13
2017-09-10T08:38:23.729Z,97060.75
2017-09-10T08:40:52.068Z,97060.14
2017-09-10T08:43:20.382Z,97059.37
2017-09-10T08:45:49.462Z,97068.68
2017-09-10T08:48:17.799Z,97065.97
2017-09-10T08:50:46.114Z,97064.01
2017-09-10T08:53:14.425Z,97068.02
2017-09-10T08:55:43.526Z,97067.34
2017-09-10T08:58:12.623Z,97070.59
2017-09-10T09:00:41.702Z,97069.05
2017-09-10T09:03:10.811Z,97065.34
2017-09-10T09:05:39.892Z,97075.38
2017-09-10T09:08:08.203Z,97076.34
2017-09-10T09:10:36.554Z,97071.55
2017-09-10T09:13:04.866Z,97078.38
2017-09-10T09:15:33.182Z,97080.83
2017-09-10T09:18:01.521Z,97081.92
2017-09-10T09:20:29.850Z,97080.06
2017-09-10T09:22:58.388Z,97078.62
2017-09-10T09:25:27.299Z,97074.00
2017-09-10T09:27:55.614Z,97071.79
2017-09-10T09:30:23.943Z,97069.61
2017-09-10T09:32:52.289Z,97076.74
2017-09-10T09:35:20.599Z,97078.06
2017-09-10T09:37:48.923Z,97081.15
2017-09-10T09:40:17.262Z,97084.80
2017-09-10T09:42:45.580Z,97090.09
2017-09-10T09:45:13.894Z,97086.52
2017-09-10T09:47:43.006Z,97083.11
2017-09-10T09:50:11.323Z,97087.56
2017-09-10T09:52:39.638Z,97088.17
2017-09-10T09:55:07.976Z,97089.11
2017-09-10T09:57:36.283Z,97090.69
2017-09-10T10:00:04.598Z,97084.73
2017-09-10T10:02:32.942Z,97088.46
2017-09-10T10:05:01.262Z,97078.56
2017-09-10T10:07:29.574Z,97077.59
2017-09-10T10:09:57.938Z,97078.44
2017-09-10T10:12:26.247Z,97073.46
2017-09-10T10:14:54.567Z,97074.14
2017-09-10T10:17:23.678Z,97073.73
2017-09-10T10:19:51.994Z,97080.02
2017-09-10T10:22:20.306Z,97082.20
2017-09-10T10:24:48.645Z,97078.61
2017-09-10T10:27:16.963Z,97078.33
2017-09-10T10:29:45.278Z,97075.45
2017-09-10T10:32:14.404Z,97082.30
2017-09-10T10:34:42.718Z,97087.63
2017-09-10T10:37:11.026Z,97080.72
2017-09-10T10:39:40.129Z,97076.09
2017-09-10T10:42:09.215Z,97071.60
2017-09-10T10:44:38.302Z,97067.78
2017-09-10T10:47:06.645Z,97071.67
2017-09-10T10:49:34.958Z,97075.97
2017-09-10T10:52:03.274Z,97078.22
2017-09-10T10:54:32.378Z,97088.00
2017-09-10T10:57:00.690Z,97082.95
2017-09-10T10:59:29.053Z,97083.50
2017-09-10T11:01:57.397Z,97080.14
2017-09-10T11:04:26.485Z,97081.73
2017-09-10T11:06:55.566Z,97080.41
2017-09-10T11:09:23.906Z,97075.55
2017-09-10T11:11:52.218Z,97079.99
2017-09-10T11:14:20.530Z,97084.14
2017-09-10T11:16:49.633Z,97080.28
2017-09-10T11:19:18.711Z,97083.73
2017-09-10T11:21:47.027Z,97081.09
2017-09-10T11:24:15.373Z,97063.81
2017-09-10T11:26:44.453Z,97062.22
2017-09-10T11:29:12.764Z,97055.84
2017-09-10T11:31:41.875Z,97050.61
2017-09-10T11:34:10.198Z,97048.55
2017-09-10T11:36:38.519Z,97043.03
2017-09-10T11:39:07.630Z,97049.60
2017-09-10T11:41:36.710Z,97052.13
2017-09-10T11:44:05.030Z,97045.91
2017-09-10T11:46:33.371Z,97043.53
2017-09-10T11:49:02.453Z,97050.52
2017-09-10T11:51:30.780Z,97043.81
2017-09-10T11:53:59.114Z,97037.73
2017-09-10T11:56:27.426Z,97036.39
2017-09-10T11:58:55.751Z,97036.73
2017-09-10T12:01:24.855Z,97029.52
2017-09-10T12:03:53.173Z,97023.61
2017-09-10T12:06:22.249Z,97024.61
2017-09-10T12:08:50.586Z,97023.84
2017-09-10T12:11:18.906Z,97026.88
2017-09-10T12:13:47.222Z,97020.59
2017-09-10T12:16:15.567Z,97021.58
2017-09-10T12:18:43.883Z,97022.97
2017-09-10T12:21:12.198Z,97025.53
2017-09-10T12:23:40.562Z,97027.02
2017-09-10T12:26:08.870Z,97024.66
2017-09-10T12:28:37.190Z,97023.07
2017-09-10T12:31:06.293Z,97017.07
2017-09-10T12:33:34.602Z,97006.30
2017-09-10T12:36:02.951Z,97003.34
2017-09-10T12:38:31.300Z,96997.08
2017-09-10T12:40:59.610Z,97003.28
2017-09-10T12:43:28.690Z,97009.35
2017-09-10T12:45:57.031Z,97010.45
2017-09-10T12:48:25.355Z,97014.34
2017-09-10T12:50:54.435Z,97011.13
2017-09-10T12:53:22.779Z,97008.86
2017-09-10T12:55:51.094Z,97006.28
2017-09-10T12:58:19.418Z,97004.42
2017-09-10T13:00:47.808Z,97007.28
2017-09-10T13:03:16.123Z,97007.66
2017-09-10T13:05:45.337Z,97015.17
2017-09-10T13:08:13.694Z,97002.73
2017-09-10T13:10:42.002Z,97004.32
2017-09-10T13:13:10.323Z,97001.80
2017-09-10T13:15:38.696Z,97001.42
2017-09-10T13:18:07.047Z,96987.55
2017-09-10T13:20:35.363Z,96977.63
2017-09-10T13:23:03.739Z,96986.23
2017-09-10T13:25:32.053Z,96987.41
2017-09-10T13:28:00.366Z,96987.02
2017-09-10T13:30:29.471Z,96984.32
2017-09-10T13:32:57.782Z,96973.67
2017-09-10T13:35:26.094Z,96979.67
2017-09-10T13:37:54.440Z,96981.28
2017-09-10T13:40:22.759Z,96970.30
2017-09-10T13:42:51.070Z,96970.82
2017-09-10T13:45:20.174Z,96970.73
2017-09-10T13:47:49.249Z,96970.35
2017-09-10T13:50:17.572Z,96943.48
2017-09-10T13:52:45.906Z,96944.48
2017-09-10T13:55:14.222Z,96940.41
2017-09-10T13:57:42.545Z,96948.73
2017-09-10T14:00:11.242Z,96950.18
2017-09-10T14:02:39.558Z,96951.01
2017-09-10T14:05:07.871Z,96953.58
2017-09-10T14:07:36.215Z,96961.11
2017-09-10T14:10:04.525Z,96958.97
2017-09-10T14:12:32.838Z,96968.69
2017-09-10T14:15:01.182Z,96981.81
2017-09-10T14:17:29.494Z,96970.07
2017-09-10T14:19:57.798Z,96960.75
2017-09-10T14:22:26.902Z,96957.33
2017-09-10T14:24:55.985Z,96964.34
2017-09-10T14:27:24.302Z,96964.90
2017-09-10T14:29:52.642Z,96962.70
2017-09-10T14:32:20.954Z,96961.70
2017-09-10T14:34:49.262Z,96958.77
2017-09-10T14:37:17.615Z,96961.17
2017-09-10T14:39:45.930Z,96964.97
2017-09-10T14:42:14.250Z,96961.94
2017-09-10T14:44:43.360Z,96961.83
2017-09-10T14:47:12.438Z,96957.17
2017-09-10T14:49:41.527Z,96968.10
2017-09-10T14:52:09.877Z,96965.75
2017-09-10T14:54:38.196Z,96960.63
2017-09-10T14:57:07.310Z,96959.93
2017-09-10T14:59:36.388Z,96950.97
2017-09-10T15:02:04.701Z,96945.91
2017-09-10T15:04:33.038Z,96942.27
2017-09-10T15:07:01.378Z,96943.45
2017-09-10T15:09:29.798Z,96944.72
2017-09-10T15:11:58.109Z,96951.05
2017-09-10T15:14:27.194Z,96952.45
2017-09-10T15:16:55.546Z,96959.05
2017-09-10T15:19:23.862Z,96955.98
2017-09-10T15:21:52.176Z,96959.00
2017-09-10T15:24:20.507Z,96958.77
2017-09-10T15:26:48.824Z,96962.30
2017-09-10T15:29:17.163Z,96950.93
2017-09-10T15:31:45.503Z,96949.98
2017-09-10T15:34:13.838Z,96945.23
2017-09-10T15:36:42.941Z,96945.14
2017-09-10T15:39:11.258Z,96950.85
2017-09-10T15:41:39.606Z,96941.44
2017-09-10T15:44:08.687Z,96937.30
2017-09-10T15:46:37.770Z,96942.55
2017-09-10T15:49:06.116Z,96940.17
2017-09-10T15:51:34.442Z,96943.86
2017-09-10T15:54:03.230Z,96940.45
2017-09-10T15:56:31.573Z,96943.80
2017-09-10T15:58:59.885Z,96929.31
2017-09-10T16:01:28.194Z,96927.67
2017-09-10T16:03:56.534Z,96923.98
2017-09-10T16:06:24.853Z,96933.42
2017-09-10T16:08:53.199Z,96920.04
2017-09-10T16:11:21.510Z,96917.65
2017-09-10T16:13:49.917Z,96921.36
2017-09-10T16:16:18.254Z,96925.30
2017-09-10T16:18:46.573Z,96928.56
2017-09-10T16:21:14.910Z,96933.63
2017-09-10T16:23:43.218Z,96930.61
2017-09-10T16:26:11.595Z,96930.70
2017-09-10T16:28:39.938Z,96930.26
2017-09-10T16:31:08.254Z,96924.60
2017-09-10T16:33:36.583Z,96917.78
2017-09-10T16:36:04.936Z,96915.27
2017-09-10T16:38:33.267Z,96912.22
2017-09-10T16:41:01.582Z,96911.16
2017-09-10T16:43:29.919Z,96904.55
2017-09-10T16:45:58.230Z,96905.91
2017-09-10T16:48:27.310Z,96898.84
2017-09-10T16:50:55.650Z,96897.25
2017-09-10T16:53:23.979Z,96897.53
2017-09-10T16:55:53.058Z,96895.89
2017-09-10T16:58:21.399Z,96898.98
2017-09-10T17:00:49.715Z,96894.63
2017-09-10T17:03:18.130Z,96897.83
2017-09-10T17:05:46.438Z,96892.98
2017-09-10T17:08:14.810Z,96893.78
2017-09-10T17:10:43.192Z,96885.84
2017-09-10T17:13:11.508Z,96883.98
2017-09-10T17:15:39.848Z,96885.39
2017-09-10T17:18:08.166Z,96895.52
2017-09-10T17:20:36.478Z,96901.71
2017-09-10T17:23:05.587Z,96894.39
2017-09-10T17:25:33.910Z,96893.27
2017-09-10T17:28:02.220Z,96891.55
2017-09-10T17:30:31.326Z,96896.01
2017-09-10T17:32:59.639Z,96880.30
2017-09-10T17:35:27.987Z,96883.98
2017-09-10T17:37:56.314Z,96884.59
2017-09-10T17:40:24.627Z,96882.94
2017-09-10T17:42:52.942Z,96881.41
2017-09-10T17:45:21.274Z,96877.19
2017-09-10T17:47:49.589Z,96879.75
2017-09-10T17:50:17.898Z,96875.48
2017-09-10T17:52:46.306Z,96877.73
2017-09-10T17:55:14.639Z,96884.45
2017-09-10T17:57:42.964Z,96880.30
2017-09-10T18:00:11.303Z,96889.05
2017-09-10T18:02:39.618Z,96882.64
2017-09-10T18:05:08.700Z,96878.30
2017-09-10T18:07:37.045Z,96881.72
2017-09-10T18:10:05.366Z,96885.83
2017-09-10T18:12:33.673Z,96877.41
2017-09-10T18:15:02.016Z,96883.27
2017-09-10T18:17:30.329Z,96880.66
2017-09-10T18:19:58.647Z,96881.67
2017-09-10T18:22:27.754Z,96880.34
2017-09-10T18:24:56.066Z,96881.55
2017-09-10T18:27:24.378Z,96882.89
2017-09-10T18:29:52.718Z,96880.73
2017-09-10T18:32:21.031Z,96878.34
2017-09-10T18:34:49.379Z,96877.36
2017-09-10T18:37:17.690Z,96886.22
2017-09-10T18:39:46.002Z,96877.73
2017-09-10T18:42:14.344Z,96883.52
2017-09-10T18:44:42.662Z,96876.20
2017-09-10T18:47:11.782Z,96877.66
2017-09-10T18:49:40.095Z,96871.38
2017-09-10T18:52:08.443Z,96871.02
2017-09-10T18:54:36.758Z,96870.18
2017-09-10T18:57:05.071Z,96867.31
2017-09-10T18:59:34.187Z,96868.27
2017-09-10T19:02:02.528Z,96863.70
2017-09-10T19:04:30.854Z,96865.42
2017-09-10T19:06:59.174Z,96874.39
2017-09-10T19:09:27.517Z,96864.92
2017-09-10T19:11:55.834Z,96870.91
2017-09-10T19:14:24.149Z,96863.60
2017-09-10T19:16:53.255Z,96857.88
2017-09-10T19:19:21.602Z,96864.77
2017-09-10T19:21:49.918Z,96867.84
2017-09-10T19:24:18.254Z,96873.38
2017-09-10T19:26:46.599Z,96869.86
2017-09-10T19:29:14.968Z,96870.00
2017-09-10T19:31:43.327Z,96871.06
2017-09-10T19:34:12.431Z,96876.72
2017-09-10T19:36:41.560Z,96867.24
2017-09-10T19:39:09.875Z,96857.50
2017-09-10T19:41:38.188Z,96858.21
2017-09-10T19:44:07.299Z,96854.81
2017-09-10T19:46:35.620Z,96855.45
2017-09-10T19:49:03.945Z,96854.19
2017-09-10T19:51:33.057Z,96842.30
2017-09-10T19:54:01.375Z,96847.66
2017-09-10T19:56:29.734Z,96847.57
2017-09-10T19:58:58.058Z,96839.58
2017-09-10T20:01:27.163Z,96838.86
2017-09-10T20:03:56.278Z,96832.64
2017-09-10T20:06:24.596Z,96831.32
2017-09-10T20:08:52.906Z,96824.42
2017-09-10T20:11:21.380Z,96832.06
2017-09-10T20:13:49.725Z,96831.41
2017-09-10T20:16:18.071Z,96828.09
2017-09-10T20:18:47.186Z,96828.60
2017-09-10T20:21:15.506Z,96820.70
2017-09-10T20:23:43.829Z,96819.56
2017-09-10T20:26:12.943Z,96823.91
2017-09-10T20:28:41.284Z,96819.27
2017-09-10T20:31:09.598Z,96814.32
2017-09-10T20:33:37.940Z,96812.07
2017-09-10T20:36:06.278Z,96820.25
2017-09-10T20:38:34.594Z,96820.53
2017-09-10T20:41:03.776Z,96820.22
2017-09-10T20:43:33.004Z,96816.28
2017-09-10T20:46:01.322Z,96820.83
2017-09-10T20:48:30.435Z,96814.79
2017-09-10T20:50:58.755Z,96822.89
2017-09-10T20:53:27.073Z,96814.55
2017-09-10T20:55:56.182Z,96812.72
2017-09-10T20:58:24.514Z,96808.19
2017-09-10T21:00:52.862Z,96799.11
2017-09-10T21:03:21.202Z,96796.39
2017-09-10T21:05:50.283Z,96787.48
2017-09-10T21:08:18.613Z,96788.78
2017-09-10T21:10:46.950Z,96777.30
2017-09-10T21:13:16.037Z,96780.29
2017-09-10T21:15:44.353Z,96774.09
2017-09-10T21:18:14.222Z,96777.59
2017-09-10T21:20:44.231Z,96781.55
2017-09-10T21:23:13.362Z,96777.94
2017-09-10T21:25:42.579Z,96771.05
2017-09-10T21:28:10.902Z,96771.30
2017-09-10T21:30:39.245Z,96769.73
2017-09-10T21:33:07.562Z,96770.69
2017-09-10T21:35:35.899Z,96779.33
2017-09-10T21:38:04.974Z,96768.13
2017-09-10T21:40:34.050Z,96764.66
2017-09-10T21:43:02.400Z,96756.64
2017-09-10T21:45:30.731Z,96754.72
2017-09-10T21:47:59.062Z,96750.16
2017-09-10T21:50:27.380Z,96747.69
2017-09-10T21:52:55.699Z,96746.27
2017-09-10T21:55:24.047Z,96746.73
2017-09-10T21:57:52.373Z,96738.55
2017-09-10T22:00:20.682Z,96738.14
2017-09-10T22:02:49.026Z,96735.19
2017-09-10T22:05:17.338Z,96733.29
2017-09-10T22:07:45.652Z,96729.72
2017-09-10T22:10:14.758Z,96723.10
2017-09-10T22:12:43.838Z,96725.77
2017-09-10T22:15:12.152Z,96723.58
2017-09-10T22:17:40.497Z,96720.79
2017-09-10T22:20:08.813Z,96719.69
2017-09-10T22:22:37.124Z,96715.01
2017-09-10T22:25:05.462Z,96716.59
2017-09-10T22:27:33.774Z,96713.35
2017-09-10T22:30:02.079Z,96708.80
2017-09-10T22:32:30.424Z,96699.22
2017-09-10T22:34:58.729Z,96698.42
2017-09-10T22:37:27.070Z,96694.94
2017-09-10T22:39:55.436Z,96694.36
2017-09-10T22:42:24.514Z,96695.88
2017-09-10T22:44:52.851Z,96692.93
2017-09-10T22:47:21.163Z,96689.27
2017-09-10T22:49:49.503Z,96694.86
2017-09-10T22:52:17.810Z,96689.47
2017-09-10T22:54:46.163Z,96676.89
2017-09-10T22:57:14.479Z,96674.97
2017-09-10T22:59:42.790Z,96669.55
2017-09-10T23:02:11.886Z,96665.40
2017-09-10T23:04:40.982Z,96670.05
2017-09-10T23:07:10.090Z,96663.24
2017-09-10T23:09:39.171Z,96662.59
2017-09-10T23:12:07.490Z,96666.01
2017-09-10T23:14:35.825Z,96656.62
2017-09-10T23:17:04.144Z,96657.27
2017-09-10T23:19:32.486Z,96645.48
2017-09-10T23:22:01.566Z,96640.95
2017-09-10T23:24:29.876Z,96644.12
2017-09-10T23:26:58.982Z,96640.22
2017-09-10T23:29:28.059Z,96642.64
2017-09-10T23:31:57.170Z,96641.51
2017-09-10T23:34:26.250Z,96639.35
2017-09-10T23:36:55.335Z,96640.22
2017-09-10T23:39:23.682Z,96643.62
2017-09-10T23:41:51.998Z,96645.53
2017-09-10T23:44:20.314Z,96641.52
2017-09-10T23:46:48.655Z,96640.80
2017-09-10T23:49:16.970Z,96641.18
2017-09-10T23:51:46.054Z,96642.73
2017-09-10T23:54:15.163Z,96643.91
2017-09-10T23:56:44.246Z,96630.32
2017-09-10T23:59:13.350Z,96621.50
